Kellyton, Alabama
Current Conditions -  °F | °C
As of 8:15 PM on Sunday 25 Jan 2015 (Local Time) from KALX Reporting Station
Light Rain Light Rain  
Wind Chill: 54°   Ceiling: 5000
Heat Index: 54°   Visibility: 10mi
Dew Point: 43°   Wind: 6mph
Humidity: 66%   Direction: 280°W
Pressure: 29.81"   Gusts: 16mph
Location:  32.98°N, 86.03°W
Report Text: KALX 260215Z AUTO 28005G14KT 10SM -RA BKN050 BKN065 OVC075 12/06 A2981 RMK AO2 T01230060
Loading
Personal Weather Stations






























Interactive Weather Map New forecast layout! Learn more

10-Day Weather Forecast

Advertisements
Track Severe Weather on mobile